createdAt,value
2023-05-22T05:00:26.374Z,30.08
2023-05-22T05:03:13.332Z,30.00
2023-05-22T05:06:01.422Z,29.88
2023-05-22T05:08:49.728Z,31.00
2023-05-22T05:11:36.055Z,27.75
2023-05-22T05:14:23.476Z,29.63
2023-05-22T05:36:39.445Z,27.08
2023-05-22T05:39:26.551Z,25.50
2023-05-22T05:42:12.944Z,26.67
2023-05-22T05:44:59.777Z,24.02
2023-05-22T05:47:47.978Z,25.60
2023-05-22T05:50:35.229Z,24.70
2023-05-22T05:53:23.515Z,25.13
2023-05-22T05:56:16.025Z,23.65
2023-05-22T05:59:02.626Z,24.08
2023-05-22T06:02:01.759Z,22.77
2023-05-22T06:04:51.622Z,22.98
2023-05-22T06:07:39.741Z,21.08
2023-05-22T06:10:28.916Z,21.13
2023-05-22T06:13:30.036Z,22.65
2023-05-22T06:16:16.626Z,22.23
2023-05-22T06:19:04.567Z,19.50
2023-05-22T06:21:52.238Z,20.50
2023-05-22T06:24:40.517Z,19.73
2023-05-22T06:27:33.926Z,19.98
2023-05-22T06:30:31.988Z,18.45
2023-05-22T06:33:27.819Z,18.80
2023-05-22T06:36:14.011Z,19.08
2023-05-22T06:39:00.048Z,18.85
2023-05-22T06:42:06.719Z,19.08
2023-05-22T06:45:14.731Z,18.60
2023-05-22T06:48:11.498Z,18.70
2023-05-22T06:51:06.936Z,18.48
2023-05-22T06:53:53.417Z,18.10
2023-05-22T06:56:44.074Z,18.90
2023-05-22T06:59:35.406Z,20.58
2023-05-22T07:02:26.279Z,20.10
2023-05-22T07:05:35.380Z,22.50
2023-05-22T07:08:22.570Z,20.13
2023-05-22T07:11:09.419Z,20.45
2023-05-22T07:13:56.075Z,19.88
2023-05-22T07:16:42.691Z,21.13
2023-05-22T07:19:30.944Z,20.40
2023-05-22T07:22:24.138Z,19.98
2023-05-22T07:25:10.814Z,19.10
2023-05-22T07:27:58.308Z,20.83
2023-05-22T07:30:45.693Z,18.83
2023-05-22T07:33:32.503Z,18.17
2023-05-22T07:36:21.112Z,19.55
2023-05-22T07:39:09.555Z,18.95
2023-05-22T07:41:59.503Z,20.25
2023-05-22T07:44:48.392Z,20.42
2023-05-22T07:47:36.880Z,20.02
2023-05-22T07:50:26.595Z,21.00
2023-05-22T07:53:14.940Z,21.38
2023-05-22T07:56:03.053Z,20.13
2023-05-22T07:58:50.949Z,19.88
2023-05-22T08:01:41.829Z,20.88
2023-05-22T08:04:30.052Z,20.52
2023-05-22T08:07:16.891Z,21.08
2023-05-22T08:10:09.014Z,19.48
2023-05-22T08:12:55.406Z,19.35
2023-05-22T08:15:41.655Z,18.58
2023-05-22T08:18:29.103Z,20.00
2023-05-22T08:21:16.177Z,19.55
2023-05-22T08:24:02.880Z,21.75
2023-05-22T08:26:50.525Z,20.08
2023-05-22T08:29:36.938Z,18.25
2023-05-22T08:32:23.812Z,17.90
2023-05-22T08:35:11.814Z,17.95
2023-05-22T08:37:57.981Z,18.38
2023-05-22T08:40:49.089Z,16.60
2023-05-22T08:43:36.682Z,17.05
2023-05-22T08:46:28.304Z,16.40
2023-05-22T08:49:14.941Z,15.50
2023-05-22T08:52:06.671Z,19.17
2023-05-22T08:54:56.416Z,19.08
2023-05-22T08:57:45.880Z,18.50
2023-05-22T09:00:34.311Z,15.23
2023-05-22T09:03:21.649Z,16.65
2023-05-22T09:06:10.256Z,16.55
2023-05-22T09:08:56.662Z,16.08
2023-05-22T09:11:43.403Z,15.05
2023-05-22T09:14:39.215Z,16.65
2023-05-22T09:17:27.533Z,15.88
2023-05-22T09:20:15.692Z,16.67
2023-05-22T09:23:03.798Z,15.13
2023-05-22T09:25:50.138Z,15.90
2023-05-22T09:28:38.159Z,15.95
2023-05-22T09:31:24.521Z,15.80
2023-05-22T09:34:14.746Z,16.55
2023-05-22T09:37:04.273Z,17.73
2023-05-22T09:39:54.437Z,17.50
2023-05-22T09:45:30.741Z,19.17
2023-05-22T09:48:18.544Z,17.23
2023-05-22T09:51:08.476Z,17.67
2023-05-22T09:54:03.750Z,17.08
2023-05-22T09:56:51.141Z,17.35
2023-05-22T09:59:40.193Z,17.42
2023-05-22T10:02:29.231Z,17.10
2023-05-22T10:05:21.638Z,20.27
2023-05-22T10:08:11.911Z,18.08
2023-05-22T10:10:58.997Z,16.40
2023-05-22T10:13:47.424Z,15.15
2023-05-22T13:35:46.067Z,15.60
2023-05-22T13:38:35.466Z,17.10
2023-05-22T13:41:22.273Z,14.18
2023-05-22T13:44:09.598Z,15.80
2023-05-22T13:46:56.286Z,15.77
2023-05-22T13:49:45.008Z,16.23
2023-05-22T13:52:32.847Z,14.17
2023-05-22T13:55:21.388Z,13.27
2023-05-22T13:58:08.219Z,11.63
2023-05-22T14:00:57.571Z,10.18
2023-05-22T14:04:12.456Z,11.63
2023-05-22T14:06:59.354Z,11.00
2023-05-22T14:09:49.878Z,10.10
2023-05-22T14:12:36.246Z,8.93
2023-05-22T14:15:24.200Z,9.27
2023-05-22T14:18:16.854Z,8.65
2023-05-22T14:21:04.737Z,8.90
2023-05-22T14:23:51.630Z,8.55
2023-05-22T14:26:40.382Z,8.75
2023-05-22T14:29:27.401Z,8.25
2023-05-22T14:32:13.484Z,7.85
2023-05-22T14:34:59.817Z,9.02
2023-05-22T14:37:46.883Z,8.05
2023-05-22T14:40:33.317Z,8.18
2023-05-22T14:43:21.948Z,7.63
2023-05-22T14:46:08.798Z,8.00
2023-05-22T14:48:55.368Z,6.80
2023-05-22T14:51:41.954Z,6.97
2023-05-22T14:54:32.391Z,7.07
2023-05-22T14:57:18.759Z,7.85
2023-05-22T16:02:28.881Z,6.32
2023-05-22T16:05:15.709Z,5.68
2023-05-22T16:08:02.447Z,6.28
2023-05-22T16:10:48.709Z,6.00
2023-05-22T16:13:35.276Z,6.15
2023-05-22T17:07:00.031Z,5.32
2023-05-22T17:10:13.924Z,5.53
2023-05-22T17:13:02.809Z,5.68
2023-05-22T17:15:49.817Z,5.77
2023-05-22T17:18:36.708Z,5.70
2023-05-22T17:21:24.175Z,5.63
2023-05-22T17:24:14.692Z,5.82
2023-05-22T17:27:03.423Z,5.35
2023-05-22T17:30:16.242Z,5.20
2023-05-22T17:33:03.689Z,5.28
2023-05-22T17:35:50.902Z,5.05
2023-05-22T17:38:39.252Z,4.85
2023-05-22T17:41:27.436Z,5.20
2023-05-22T17:44:14.228Z,5.63
2023-05-22T17:47:00.989Z,6.15
2023-05-22T17:49:47.299Z,5.32
2023-05-22T17:52:33.602Z,4.80
2023-05-22T17:55:20.878Z,4.97
2023-05-22T17:58:08.924Z,5.00
2023-05-22T18:00:55.349Z,4.80
2023-05-22T18:03:42.216Z,4.70
2023-05-22T18:06:29.147Z,5.40
2023-05-22T18:09:15.718Z,4.65
2023-05-22T18:12:03.578Z,4.95
2023-05-22T18:14:52.236Z,4.40
2023-05-22T18:17:38.889Z,4.65
2023-05-22T18:20:25.119Z,4.90
2023-05-22T18:23:11.524Z,4.85
2023-05-22T18:25:58.231Z,5.28
2023-05-22T18:28:44.783Z,4.97
2023-05-22T18:31:33.286Z,5.32
2023-05-22T18:34:19.857Z,5.32
2023-05-22T18:37:06.609Z,5.70
2023-05-22T18:39:52.978Z,5.53
2023-05-22T18:42:39.676Z,5.45
2023-05-22T18:45:26.422Z,5.00
2023-05-22T18:48:14.236Z,5.80
2023-05-22T18:51:01.236Z,5.30
2023-05-22T18:53:47.519Z,6.15
2023-05-22T18:56:34.086Z,5.25
2023-05-22T18:59:20.783Z,6.03
2023-05-22T19:48:43.980Z,8.77
2023-05-22T19:52:53.696Z,8.15
2023-05-22T22:02:58.884Z,7.68
2023-05-22T22:05:45.115Z,7.38
2023-05-22T22:08:31.973Z,7.45
2023-05-22T22:11:18.206Z,7.38
2023-05-22T22:14:04.872Z,7.72
